createdAt,value
2022-12-20T00:02:04.470Z,-6.20
2022-12-20T00:04:34.641Z,-6.20
2022-12-20T00:07:03.317Z,-6.20
2022-12-20T00:09:34.027Z,-6.10
2022-12-20T00:12:02.792Z,-6.10
2022-12-20T00:14:31.525Z,-6.00
2022-12-20T00:17:00.364Z,-6.00
2022-12-20T00:19:29.276Z,-6.00
2022-12-20T00:21:59.601Z,-5.90
2022-12-20T00:24:28.270Z,-5.90
2022-12-20T00:26:57.106Z,-5.90
2022-12-20T00:29:25.819Z,-5.90
2022-12-20T00:31:56.916Z,-5.80
2022-12-20T00:34:25.674Z,-5.90
2022-12-20T00:36:54.304Z,-5.80
2022-12-20T00:39:25.604Z,-5.80
2022-12-20T00:41:58.555Z,-5.80
2022-12-20T00:44:29.440Z,-5.80
2022-12-20T00:46:58.051Z,-5.70
2022-12-20T00:49:26.755Z,-5.80
2022-12-20T00:51:55.353Z,-5.80
2022-12-20T00:54:25.655Z,-5.80
2022-12-20T00:56:56.924Z,-5.80
2022-12-20T00:59:25.653Z,-5.70
2022-12-20T01:01:54.536Z,-5.70
2022-12-20T01:04:24.087Z,-5.70
2022-12-20T01:07:18.958Z,-5.70
2022-12-20T01:09:49.272Z,-5.70
2022-12-20T01:12:18.065Z,-5.60
2022-12-20T01:14:49.625Z,-5.60
2022-12-20T01:17:18.383Z,-5.50
2022-12-20T01:19:50.065Z,-5.50
2022-12-20T01:22:18.706Z,-5.50
2022-12-20T01:24:48.859Z,-5.50
2022-12-20T01:27:17.521Z,-5.50
2022-12-20T01:29:47.125Z,-5.40
2022-12-20T01:32:16.907Z,-5.40
2022-12-20T01:34:45.631Z,-5.40
2022-12-20T01:37:15.962Z,-5.40
2022-12-20T01:39:44.732Z,-5.40
2022-12-20T01:42:16.667Z,-5.30
2022-12-20T01:44:58.319Z,-5.30
2022-12-20T01:47:31.127Z,-5.30
2022-12-20T01:50:02.432Z,-5.30
2022-12-20T01:52:34.419Z,-5.30
2022-12-20T01:55:08.276Z,-5.30
2022-12-20T01:57:43.845Z,-5.30
2022-12-20T02:00:15.760Z,-5.30
2022-12-20T02:02:45.168Z,-5.30
2022-12-20T02:05:14.858Z,-5.30
2022-12-20T02:07:48.958Z,-5.20
2022-12-20T02:10:22.028Z,-5.20
2022-12-20T02:12:59.879Z,-5.20
2022-12-20T02:15:41.468Z,-5.20
2022-12-20T02:18:25.026Z,-5.20
2022-12-20T02:21:23.551Z,-5.10
2022-12-20T02:24:19.605Z,-5.10
2022-12-20T02:27:18.491Z,-5.00
2022-12-20T02:30:14.394Z,-5.00
2022-12-20T02:32:50.697Z,-5.00
2022-12-20T02:35:23.618Z,-5.00
2022-12-20T02:37:55.898Z,-5.00
2022-12-20T02:40:29.741Z,-5.00
2022-12-20T02:43:04.655Z,-5.00
2022-12-20T02:45:37.609Z,-5.00
2022-12-20T02:48:12.281Z,-5.00
2022-12-20T02:50:45.064Z,-4.90
2022-12-20T02:53:15.255Z,-4.90
2022-12-20T02:55:52.221Z,-4.90
2022-12-20T02:58:30.086Z,-4.90
2022-12-20T03:01:04.665Z,-4.90
2022-12-20T03:03:35.232Z,-4.90
2022-12-20T03:06:04.027Z,-4.90
2022-12-20T03:08:32.897Z,-4.80
2022-12-20T03:11:04.491Z,-4.80
2022-12-20T03:13:33.993Z,-4.80
2022-12-20T03:16:10.869Z,-4.80
2022-12-20T03:18:40.525Z,-4.80
2022-12-20T03:21:09.440Z,-4.80
2022-12-20T03:23:38.214Z,-4.80
2022-12-20T03:26:07.842Z,-4.80
2022-12-20T03:28:41.740Z,-4.80
2022-12-20T03:31:16.673Z,-4.90
2022-12-20T03:33:52.786Z,-4.90
2022-12-20T03:36:24.272Z,-4.90
2022-12-20T03:38:57.679Z,-4.90
2022-12-20T03:41:28.621Z,-4.90
2022-12-20T03:43:57.459Z,-4.80
2022-12-20T03:46:28.991Z,-4.80
2022-12-20T03:48:58.323Z,-4.80
2022-12-20T03:51:26.965Z,-4.80
2022-12-20T03:53:55.879Z,-4.80
2022-12-20T03:56:31.391Z,-4.80
2022-12-20T03:59:03.068Z,-4.80
2022-12-20T04:01:36.822Z,-4.80
2022-12-20T04:04:06.998Z,-4.70
2022-12-20T04:06:35.708Z,-4.70
2022-12-20T04:09:04.339Z,-4.70
2022-12-20T04:11:40.640Z,-4.70
2022-12-20T04:14:18.772Z,-4.70
2022-12-20T04:16:49.053Z,-4.70
2022-12-20T04:19:18.298Z,-4.70
2022-12-20T04:21:49.010Z,-4.70
2022-12-20T04:24:22.706Z,-4.70
2022-12-20T04:27:09.077Z,-4.70
2022-12-20T04:29:38.022Z,-4.70
2022-12-20T04:32:13.992Z,-4.70
2022-12-20T04:34:42.764Z,-4.60
2022-12-20T04:37:13.814Z,-4.60
2022-12-20T04:39:51.350Z,-4.60
2022-12-20T04:42:23.106Z,-4.60
2022-12-20T04:44:52.802Z,-4.60
2022-12-20T04:47:31.240Z,-4.60
2022-12-20T04:50:00.234Z,-4.60
2022-12-20T04:52:48.153Z,-4.60
2022-12-20T04:55:20.700Z,-4.60
2022-12-20T04:57:49.511Z,-4.60
2022-12-20T05:00:21.421Z,-4.60
2022-12-20T05:02:58.231Z,-4.60
2022-12-20T05:05:28.205Z,-4.60
2022-12-20T05:07:58.684Z,-4.60
2022-12-20T05:10:27.710Z,-4.60
2022-12-20T05:12:58.301Z,-4.60
2022-12-20T05:15:37.199Z,-4.60
2022-12-20T05:18:07.653Z,-4.60
2022-12-20T05:21:15.854Z,-4.60
2022-12-20T05:24:04.718Z,-4.60
2022-12-20T05:26:39.553Z,-4.60
2022-12-20T05:29:09.173Z,-4.50
2022-12-20T05:31:40.704Z,-4.50
2022-12-20T05:34:11.021Z,-4.50
2022-12-20T05:36:41.490Z,-4.50
2022-12-20T05:39:11.792Z,-4.50
2022-12-20T05:41:45.524Z,-4.50
2022-12-20T05:44:15.401Z,-4.50
2022-12-20T05:46:47.390Z,-4.50
2022-12-20T05:49:23.315Z,-4.50
2022-12-20T05:51:52.231Z,-4.50
2022-12-20T05:54:26.475Z,-4.40
2022-12-20T05:57:04.202Z,-4.40
2022-12-20T05:59:43.128Z,-4.40
2022-12-20T06:02:21.960Z,-4.30
2022-12-20T06:04:57.921Z,-4.30
2022-12-20T06:07:33.323Z,-4.30
2022-12-20T06:10:02.502Z,-4.30
2022-12-20T06:12:56.422Z,-4.30
2022-12-20T06:15:29.677Z,-4.20
2022-12-20T06:17:59.623Z,-4.20
2022-12-20T06:20:32.139Z,-4.20
2022-12-20T06:23:03.302Z,-4.10
2022-12-20T06:25:42.584Z,-4.10
2022-12-20T06:28:12.248Z,-4.10
2022-12-20T06:30:42.834Z,-4.10
2022-12-20T06:33:17.197Z,-4.10
2022-12-20T06:35:47.321Z,-4.00
2022-12-20T06:38:16.184Z,-4.00
2022-12-20T06:40:44.993Z,-4.00
2022-12-20T06:43:18.596Z,-3.90
2022-12-20T06:45:50.768Z,-3.90
2022-12-20T06:48:21.340Z,-3.90
2022-12-20T06:50:56.124Z,-3.80
2022-12-20T06:53:28.431Z,-3.80
2022-12-20T06:55:57.127Z,-3.80
2022-12-20T06:58:26.539Z,-3.80
2022-12-20T07:00:56.667Z,-3.80
2022-12-20T07:03:28.487Z,-3.70
2022-12-20T07:05:59.942Z,-3.70
2022-12-20T07:08:29.164Z,-3.70
2022-12-20T07:10:58.031Z,-3.70
2022-12-20T07:13:28.624Z,-3.70
2022-12-20T07:16:03.087Z,-3.70
2022-12-20T07:18:35.820Z,-3.60
2022-12-20T07:21:09.243Z,-3.60
2022-12-20T07:23:38.140Z,-3.60
2022-12-20T07:26:11.321Z,-3.60
2022-12-20T07:28:44.896Z,-3.60
2022-12-20T07:31:13.818Z,-3.50
2022-12-20T07:33:42.400Z,-3.50
2022-12-20T07:36:17.064Z,-3.50
2022-12-20T07:38:49.201Z,-3.50
2022-12-20T07:41:19.177Z,-3.50
2022-12-20T07:43:48.243Z,-3.40
2022-12-20T07:46:17.790Z,-3.40
2022-12-20T07:48:49.067Z,-3.40
2022-12-20T07:51:22.932Z,-3.40
2022-12-20T07:53:57.051Z,-3.40
2022-12-20T07:56:34.558Z,-3.40
2022-12-20T07:59:06.148Z,-3.30
2022-12-20T08:01:34.946Z,-3.30
2022-12-20T08:04:17.565Z,-3.30
2022-12-20T08:06:51.065Z,-3.30
2022-12-20T08:09:20.647Z,-3.20
2022-12-20T08:11:55.715Z,-3.20
2022-12-20T08:14:27.042Z,-3.20
2022-12-20T08:16:58.184Z,-3.10
2022-12-20T08:19:32.008Z,-3.10
2022-12-20T08:22:02.769Z,-3.00
2022-12-20T08:24:39.893Z,-3.00
2022-12-20T08:27:10.947Z,-3.00
2022-12-20T08:29:42.661Z,-2.90
2022-12-20T08:32:13.198Z,-2.90
2022-12-20T08:34:41.917Z,-2.90
2022-12-20T08:37:15.108Z,-2.80
2022-12-20T08:39:44.201Z,-2.80
2022-12-20T08:42:13.318Z,-2.80
2022-12-20T08:44:46.329Z,-2.70
2022-12-20T08:47:15.639Z,-2.70
2022-12-20T08:49:48.114Z,-2.70
2022-12-20T08:52:21.868Z,-2.60
2022-12-20T08:54:50.586Z,-2.60
2022-12-20T08:57:24.010Z,-2.60
2022-12-20T08:59:52.637Z,-2.60
2022-12-20T09:02:28.641Z,-2.50
2022-12-20T09:05:05.107Z,-2.50
2022-12-20T09:07:35.232Z,-2.50
2022-12-20T09:10:06.170Z,-2.50
2022-12-20T09:12:41.195Z,-2.40
2022-12-20T09:15:13.050Z,-2.40
2022-12-20T09:17:41.808Z,-2.40
2022-12-20T09:20:13.619Z,-2.30
2022-12-20T09:22:43.623Z,-2.30
2022-12-20T09:25:14.029Z,-2.30
2022-12-20T09:27:42.783Z,-2.20
2022-12-20T09:30:12.268Z,-2.20
2022-12-20T09:32:40.961Z,-2.10
2022-12-20T09:35:19.358Z,-2.10
2022-12-20T09:37:55.391Z,-2.00
2022-12-20T09:40:42.001Z,-2.00
2022-12-20T09:43:18.902Z,-2.00
2022-12-20T09:45:52.348Z,-1.90
2022-12-20T09:48:28.401Z,-1.90
2022-12-20T09:51:12.830Z,-1.90
2022-12-20T09:53:57.252Z,-1.80
2022-12-20T09:56:37.613Z,-1.80
2022-12-20T09:59:14.559Z,-1.80
2022-12-20T10:01:50.326Z,-1.70
2022-12-20T10:04:25.280Z,-1.70
2022-12-20T10:07:08.235Z,-1.60
2022-12-20T10:09:56.192Z,-1.60
2022-12-20T10:12:35.144Z,-1.50
2022-12-20T10:15:30.604Z,-1.50
2022-12-20T10:18:18.679Z,-1.20
2022-12-20T10:21:01.047Z,-1.30
2022-12-20T10:23:35.076Z,-1.20
2022-12-20T10:26:14.276Z,-1.20
2022-12-20T10:28:53.809Z,-1.20
2022-12-20T10:31:29.679Z,-1.30
2022-12-20T10:34:00.579Z,-1.10
2022-12-20T10:36:30.866Z,-1.00
2022-12-20T10:39:04.204Z,-1.10
2022-12-20T10:41:52.177Z,-1.10
2022-12-20T10:44:29.381Z,-1.10
2022-12-20T10:47:02.170Z,-1.10
2022-12-20T10:49:34.751Z,-1.00
2022-12-20T10:52:15.777Z,-1.00
2022-12-20T10:54:46.098Z,-0.90
2022-12-20T10:57:21.271Z,-0.90
2022-12-20T10:59:54.213Z,-0.90
2022-12-20T11:02:34.992Z,-0.80
2022-12-20T11:05:26.463Z,-0.80
2022-12-20T11:10:49.593Z,-0.80
2022-12-20T11:13:29.465Z,-0.80
2022-12-20T11:16:04.565Z,-0.70
2022-12-20T11:18:45.033Z,-0.60
2022-12-20T11:21:28.396Z,-0.60
2022-12-20T11:24:10.452Z,-0.60
2022-12-20T11:27:00.493Z,-0.60
2022-12-20T11:29:46.581Z,-0.60
2022-12-20T11:32:30.271Z,-0.50
2022-12-20T11:35:13.156Z,-0.50
2022-12-20T11:37:54.377Z,-0.50
2022-12-20T11:40:32.668Z,-0.40
2022-12-20T11:43:19.367Z,-0.40
2022-12-20T11:46:00.140Z,-0.40
2022-12-20T11:48:51.570Z,-0.40
2022-12-20T11:51:27.012Z,-0.30
2022-12-20T11:54:03.744Z,-0.40
2022-12-20T11:56:43.939Z,-0.30
2022-12-20T11:59:28.263Z,-0.30
2022-12-20T12:02:12.730Z,-0.30
2022-12-20T12:04:48.296Z,-0.30
2022-12-20T12:07:23.462Z,-0.20
2022-12-20T12:10:00.449Z,-0.20
2022-12-20T12:12:32.719Z,-0.10
2022-12-20T12:15:11.211Z,-0.10
2022-12-20T12:17:49.890Z,0.00
2022-12-20T12:20:30.312Z,0.00
2022-12-20T12:23:06.878Z,0.00
2022-12-20T12:25:35.529Z,0.10
2022-12-20T12:28:06.344Z,0.10
2022-12-20T12:30:54.532Z,0.20
2022-12-20T12:33:38.640Z,0.20
2022-12-20T12:36:37.333Z,0.20
2022-12-20T12:39:46.137Z,0.20
2022-12-20T12:42:48.336Z,0.20
2022-12-20T12:45:25.443Z,0.20
2022-12-20T12:48:00.210Z,0.20
2022-12-20T12:50:33.847Z,0.30
2022-12-20T12:53:11.925Z,0.30
2022-12-20T12:55:46.989Z,0.30
2022-12-20T12:58:48.548Z,0.30
2022-12-20T13:02:00.780Z,0.40
2022-12-20T13:04:56.214Z,0.40
2022-12-20T13:08:24.533Z,0.40
2022-12-20T13:11:03.406Z,0.40
2022-12-20T13:13:32.441Z,0.40
2022-12-20T13:16:48.717Z,0.40
2022-12-20T13:19:35.426Z,0.40
2022-12-20T13:22:25.140Z,0.40
2022-12-20T13:25:03.822Z,0.50
2022-12-20T13:27:41.427Z,0.50
2022-12-20T13:30:26.256Z,0.50
2022-12-20T13:33:23.585Z,0.50
2022-12-20T13:36:27.475Z,0.50
2022-12-20T13:39:03.942Z,0.50
2022-12-20T13:41:45.317Z,0.50
2022-12-20T13:44:41.579Z,0.50
2022-12-20T13:47:34.548Z,0.50
2022-12-20T13:50:19.733Z,0.50
2022-12-20T13:52:49.547Z,0.50
2022-12-20T13:55:37.830Z,0.50
2022-12-20T13:58:20.010Z,0.50
2022-12-20T14:00:49.614Z,0.50
2022-12-20T14:03:26.903Z,0.50
2022-12-20T14:05:59.458Z,0.50
2022-12-20T14:08:34.353Z,0.50
2022-12-20T14:11:11.110Z,0.60
2022-12-20T14:13:47.406Z,0.60
2022-12-20T14:16:22.900Z,0.60
2022-12-20T14:18:52.491Z,0.60
2022-12-20T14:21:23.785Z,0.70
2022-12-20T14:23:54.466Z,0.70
2022-12-20T14:26:28.945Z,0.70
2022-12-20T14:29:01.490Z,0.80
2022-12-20T14:31:36.661Z,0.70
2022-12-20T14:34:08.941Z,0.70
2022-12-20T14:36:38.471Z,0.80
2022-12-20T14:39:26.312Z,0.80
2022-12-20T14:42:03.293Z,0.80
2022-12-20T14:44:34.523Z,0.80
2022-12-20T14:47:06.844Z,0.80
2022-12-20T14:49:39.861Z,0.90
2022-12-20T14:52:17.034Z,0.90
2022-12-20T14:57:42.107Z,0.90
2022-12-20T15:00:29.419Z,0.80
2022-12-20T15:03:13.036Z,0.90
2022-12-20T15:05:49.028Z,0.80
2022-12-20T15:08:21.940Z,0.80
2022-12-20T15:10:54.487Z,0.80
2022-12-20T15:13:29.614Z,0.90
2022-12-20T15:16:05.008Z,0.90
2022-12-20T15:18:33.850Z,0.90
2022-12-20T15:21:10.095Z,0.90
2022-12-20T15:23:42.980Z,0.90
2022-12-20T15:26:17.277Z,0.90
2022-12-20T15:28:46.147Z,0.90
2022-12-20T15:31:19.528Z,1.00
2022-12-20T15:33:49.027Z,1.10
2022-12-20T15:36:22.508Z,1.10
2022-12-20T15:39:12.130Z,1.20
2022-12-20T15:41:48.629Z,1.20
2022-12-20T15:44:24.002Z,1.20
2022-12-20T15:46:57.784Z,1.20
2022-12-20T15:49:33.644Z,1.20
2022-12-20T15:52:02.359Z,1.30
2022-12-20T15:54:38.073Z,1.30
2022-12-20T15:57:08.648Z,1.20
2022-12-20T16:00:00.323Z,1.30
2022-12-20T16:02:32.850Z,1.20
2022-12-20T16:05:01.835Z,1.20
2022-12-20T16:07:32.779Z,1.20
2022-12-20T16:10:01.620Z,1.20
2022-12-20T16:12:34.725Z,1.30
2022-12-20T16:15:05.067Z,1.30
2022-12-20T16:17:39.217Z,1.40
2022-12-20T16:20:10.049Z,1.40
2022-12-20T16:22:38.757Z,1.40
2022-12-20T16:25:08.253Z,1.40
2022-12-20T16:27:36.873Z,1.40
2022-12-20T16:30:06.898Z,1.40
2022-12-20T16:32:40.833Z,1.40
2022-12-20T16:35:26.047Z,1.40
2022-12-20T16:37:55.779Z,1.40
2022-12-20T16:40:27.654Z,1.40
2022-12-20T16:42:58.011Z,1.40
2022-12-20T16:45:30.785Z,1.40
2022-12-20T16:48:02.161Z,1.40
2022-12-20T16:50:36.075Z,1.40
2022-12-20T16:53:07.565Z,1.40
2022-12-20T16:55:39.970Z,1.40
2022-12-20T16:58:12.864Z,1.50
2022-12-20T17:00:43.565Z,1.50
2022-12-20T17:03:16.922Z,1.60
2022-12-20T17:05:45.970Z,1.60
2022-12-20T17:11:03.247Z,1.60
2022-12-20T17:13:31.825Z,1.60
2022-12-20T17:16:09.449Z,1.60
2022-12-20T17:18:39.915Z,1.60
2022-12-20T17:21:24.016Z,1.60
2022-12-20T17:23:55.908Z,1.60
2022-12-20T17:26:29.082Z,1.60
2022-12-20T17:29:00.907Z,1.60
2022-12-20T17:31:33.889Z,1.60
2022-12-20T17:34:17.170Z,1.60
2022-12-20T17:36:49.735Z,1.60
2022-12-20T17:39:20.617Z,1.60
2022-12-20T17:41:52.512Z,1.60
2022-12-20T17:44:23.919Z,1.60
2022-12-20T17:46:56.576Z,1.60
2022-12-20T17:49:29.074Z,1.60
2022-12-20T17:52:00.624Z,1.60
2022-12-20T17:54:39.298Z,1.60
2022-12-20T17:57:17.198Z,1.60
2022-12-20T17:59:49.908Z,1.60
2022-12-20T18:02:23.112Z,1.60
2022-12-20T18:04:58.278Z,1.60
2022-12-20T18:07:27.130Z,1.60
2022-12-20T18:09:57.866Z,1.60
2022-12-20T18:12:26.685Z,1.60
2022-12-20T18:14:55.885Z,1.60
2022-12-20T18:17:26.513Z,1.60
2022-12-20T18:19:57.056Z,1.60
2022-12-20T18:22:25.875Z,1.60
2022-12-20T18:24:59.720Z,1.60
2022-12-20T18:27:42.564Z,1.60
2022-12-20T18:30:13.531Z,1.60
2022-12-20T18:32:49.649Z,1.60
2022-12-20T18:35:30.388Z,1.60
2022-12-20T18:38:02.150Z,1.60
2022-12-20T18:40:44.689Z,1.60
2022-12-20T18:43:46.149Z,1.60
2022-12-20T18:47:19.415Z,1.60
2022-12-20T18:54:12.684Z,1.60
2022-12-20T18:56:41.551Z,1.60
2022-12-20T18:59:12.385Z,1.60
2022-12-20T19:01:49.424Z,1.60
2022-12-20T19:04:24.896Z,1.60
2022-12-20T19:07:05.678Z,1.60
2022-12-20T19:09:36.963Z,1.50
2022-12-20T19:12:06.623Z,1.50
2022-12-20T19:14:40.611Z,1.60
2022-12-20T19:17:11.234Z,1.60
2022-12-20T19:19:41.064Z,1.60
2022-12-20T19:22:16.540Z,1.60
2022-12-20T19:24:48.267Z,1.70
2022-12-20T19:27:17.153Z,1.70
2022-12-20T19:29:53.626Z,1.80
2022-12-20T19:32:22.513Z,1.80
2022-12-20T19:34:56.439Z,1.80
2022-12-20T19:37:31.922Z,1.80
2022-12-20T19:40:06.298Z,1.80
2022-12-20T19:42:35.308Z,1.80
2022-12-20T19:45:04.532Z,1.80
2022-12-20T19:47:36.384Z,1.80
2022-12-20T19:50:08.923Z,1.80
2022-12-20T19:52:41.499Z,1.80
2022-12-20T19:55:12.026Z,1.70
2022-12-20T19:57:48.183Z,1.70
2022-12-20T20:00:23.032Z,1.70
2022-12-20T20:02:54.356Z,1.70
2022-12-20T20:05:29.035Z,1.70
2022-12-20T20:08:02.145Z,1.70
2022-12-20T20:10:39.425Z,1.70
2022-12-20T20:13:13.391Z,1.70
2022-12-20T20:18:47.515Z,1.80
2022-12-20T20:21:21.463Z,1.70
2022-12-20T20:24:02.078Z,1.70
2022-12-20T20:29:23.686Z,1.70
2022-12-20T20:31:54.144Z,1.70
2022-12-20T20:34:30.447Z,1.70
2022-12-20T20:37:03.828Z,1.80
2022-12-20T20:39:48.307Z,1.80
2022-12-20T20:42:23.478Z,1.80
2022-12-20T20:45:01.825Z,1.80
2022-12-20T20:47:33.772Z,1.80
2022-12-20T20:50:11.112Z,1.70
2022-12-20T20:52:45.964Z,1.70
2022-12-20T20:55:24.795Z,1.70
2022-12-20T20:57:59.312Z,1.70
2022-12-20T21:00:35.062Z,1.70
2022-12-20T21:03:05.735Z,1.70
2022-12-20T21:06:32.890Z,1.70
2022-12-20T21:08:27.073Z,1.70
2022-12-20T21:11:00.117Z,1.70
2022-12-20T21:13:33.784Z,1.70
2022-12-20T21:16:23.550Z,1.70
2022-12-20T21:19:13.118Z,1.70
2022-12-20T21:21:47.705Z,1.80
2022-12-20T21:24:22.581Z,1.80
2022-12-20T21:27:09.570Z,1.80
2022-12-20T21:29:42.408Z,1.80
2022-12-20T21:32:17.258Z,1.80
2022-12-20T21:34:59.786Z,1.80
2022-12-20T21:37:49.936Z,1.80
2022-12-20T21:40:21.609Z,1.80
2022-12-20T21:42:51.758Z,1.80
2022-12-20T21:45:39.211Z,1.90
2022-12-20T21:48:18.135Z,1.80
2022-12-20T21:51:09.155Z,1.80
2022-12-20T21:53:52.153Z,1.80
2022-12-20T21:56:53.861Z,1.80
2022-12-20T21:59:33.961Z,1.80
2022-12-20T22:02:16.412Z,1.80
2022-12-20T22:05:09.157Z,1.80
2022-12-20T22:07:50.393Z,1.80
2022-12-20T22:10:24.325Z,1.80
2022-12-20T22:13:02.267Z,1.80
2022-12-20T22:18:43.667Z,1.80
2022-12-20T22:21:14.160Z,1.90
2022-12-20T22:23:53.334Z,1.90
2022-12-20T22:26:26.583Z,1.90
2022-12-20T22:29:05.243Z,1.80
2022-12-20T22:31:56.682Z,1.80
2022-12-20T22:34:37.463Z,1.80
2022-12-20T22:37:19.691Z,1.80
2022-12-20T22:39:51.064Z,1.90
2022-12-20T22:42:25.204Z,1.90
2022-12-20T22:44:56.398Z,1.80
2022-12-20T22:47:30.380Z,1.80
2022-12-20T22:49:59.298Z,1.80
2022-12-20T22:52:34.913Z,1.80
2022-12-20T22:55:14.307Z,1.80
2022-12-20T22:57:43.147Z,1.80
2022-12-20T23:00:19.627Z,1.80
2022-12-20T23:02:54.420Z,1.70
2022-12-20T23:05:23.745Z,1.80
2022-12-20T23:07:57.349Z,1.70
2022-12-20T23:10:47.503Z,1.70
2022-12-20T23:13:36.465Z,1.70
2022-12-20T23:16:05.517Z,1.70
2022-12-20T23:18:35.748Z,1.70
2022-12-20T23:21:24.866Z,1.70
2022-12-20T23:23:56.351Z,1.70
2022-12-20T23:26:33.874Z,1.70
2022-12-20T23:29:08.414Z,1.70
2022-12-20T23:31:44.509Z,1.70
2022-12-20T23:34:20.898Z,1.80
2022-12-20T23:36:52.791Z,1.70
2022-12-20T23:39:25.807Z,1.80
2022-12-20T23:41:54.945Z,1.70
2022-12-20T23:44:24.285Z,1.70
2022-12-20T23:46:55.367Z,1.70
2022-12-20T23:49:36.239Z,1.70
2022-12-20T23:52:06.782Z,1.70
2022-12-20T23:54:37.588Z,1.70
2022-12-20T23:57:08.622Z,1.70
2022-12-20T23:59:49.535Z,1.70
